sensor_id;sensor_type;location;lat;lon;timestamp;temperature;humidity
21335;DHT22;10826;52.536;13.432;2022-08-21T00:00:11;23.70;60.20
21335;DHT22;10826;52.536;13.432;2022-08-21T00:02:49;23.70;60.30
21335;DHT22;10826;52.536;13.432;2022-08-21T00:05:18;23.60;60.30
21335;DHT22;10826;52.536;13.432;2022-08-21T00:07:44;23.60;60.50
21335;DHT22;10826;52.536;13.432;2022-08-21T00:10:12;23.50;60.50
21335;DHT22;10826;52.536;13.432;2022-08-21T00:12:39;23.60;60.60
21335;DHT22;10826;52.536;13.432;2022-08-21T00:15:08;23.50;60.80
21335;DHT22;10826;52.536;13.432;2022-08-21T00:17:36;23.50;60.90
21335;DHT22;10826;52.536;13.432;2022-08-21T00:20:05;23.50;61.10
21335;DHT22;10826;52.536;13.432;2022-08-21T00:22:34;23.50;61.20
21335;DHT22;10826;52.536;13.432;2022-08-21T00:25:02;23.50;61.50
21335;DHT22;10826;52.536;13.432;2022-08-21T00:27:29;23.50;61.70
21335;DHT22;10826;52.536;13.432;2022-08-21T00:29:55;23.50;61.90
21335;DHT22;10826;52.536;13.432;2022-08-21T00:32:23;23.50;61.90
21335;DHT22;10826;52.536;13.432;2022-08-21T00:34:50;23.40;61.90
21335;DHT22;10826;52.536;13.432;2022-08-21T00:37:17;23.40;61.90
21335;DHT22;10826;52.536;13.432;2022-08-21T00:39:43;23.30;61.70
21335;DHT22;10826;52.536;13.432;2022-08-21T00:42:11;23.30;61.90
21335;DHT22;10826;52.536;13.432;2022-08-21T00:44:42;23.20;61.70
21335;DHT22;10826;52.536;13.432;2022-08-21T00:47:10;23.20;61.60
21335;DHT22;10826;52.536;13.432;2022-08-21T00:49:38;23.20;61.60
21335;DHT22;10826;52.536;13.432;2022-08-21T00:52:09;23.10;61.70
21335;DHT22;10826;52.536;13.432;2022-08-21T00:54:40;23.10;61.80
21335;DHT22;10826;52.536;13.432;2022-08-21T00:57:19;23.10;61.90
21335;DHT22;10826;52.536;13.432;2022-08-21T00:59:52;23.10;62.10
21335;DHT22;10826;52.536;13.432;2022-08-21T01:02:21;23.00;62.20
21335;DHT22;10826;52.536;13.432;2022-08-21T01:04:48;23.00;62.40
21335;DHT22;10826;52.536;13.432;2022-08-21T01:07:14;23.00;62.30
21335;DHT22;10826;52.536;13.432;2022-08-21T01:09:42;23.00;62.20
21335;DHT22;10826;52.536;13.432;2022-08-21T01:12:09;23.00;62.10
21335;DHT22;10826;52.536;13.432;2022-08-21T01:14:37;23.00;62.00
21335;DHT22;10826;52.536;13.432;2022-08-21T01:17:05;23.10;61.80
21335;DHT22;10826;52.536;13.432;2022-08-21T01:19:31;23.10;61.90
21335;DHT22;10826;52.536;13.432;2022-08-21T01:21:58;23.00;61.70
21335;DHT22;10826;52.536;13.432;2022-08-21T01:24:25;23.00;61.70
21335;DHT22;10826;52.536;13.432;2022-08-21T01:26:51;23.00;61.60
21335;DHT22;10826;52.536;13.432;2022-08-21T01:29:43;23.00;61.60
21335;DHT22;10826;52.536;13.432;2022-08-21T01:32:16;23.00;60.90
21335;DHT22;10826;52.536;13.432;2022-08-21T01:34:47;22.90;61.00
21335;DHT22;10826;52.536;13.432;2022-08-21T01:37:15;22.90;61.20
21335;DHT22;10826;52.536;13.432;2022-08-21T01:39:43;22.90;61.30
21335;DHT22;10826;52.536;13.432;2022-08-21T01:42:10;22.90;61.00
21335;DHT22;10826;52.536;13.432;2022-08-21T01:44:37;22.90;61.00
21335;DHT22;10826;52.536;13.432;2022-08-21T01:47:07;22.90;60.80
21335;DHT22;10826;52.536;13.432;2022-08-21T01:49:35;22.90;60.90
21335;DHT22;10826;52.536;13.432;2022-08-21T01:52:03;22.80;60.70
21335;DHT22;10826;52.536;13.432;2022-08-21T01:54:30;22.80;60.80
21335;DHT22;10826;52.536;13.432;2022-08-21T01:57:01;22.80;60.60
21335;DHT22;10826;52.536;13.432;2022-08-21T01:59:28;22.70;60.50
21335;DHT22;10826;52.536;13.432;2022-08-21T02:01:57;22.70;60.70
21335;DHT22;10826;52.536;13.432;2022-08-21T02:04:24;22.70;60.40
21335;DHT22;10826;52.536;13.432;2022-08-21T02:06:50;22.60;60.30
21335;DHT22;10826;52.536;13.432;2022-08-21T02:09:17;22.60;60.10
21335;DHT22;10826;52.536;13.432;2022-08-21T02:11:44;22.60;59.90
21335;DHT22;10826;52.536;13.432;2022-08-21T02:14:11;22.50;60.10
21335;DHT22;10826;52.536;13.432;2022-08-21T02:16:43;22.50;60.10
21335;DHT22;10826;52.536;13.432;2022-08-21T02:19:12;22.50;59.90
21335;DHT22;10826;52.536;13.432;2022-08-21T02:21:40;22.50;59.90
21335;DHT22;10826;52.536;13.432;2022-08-21T02:24:07;22.40;60.60
21335;DHT22;10826;52.536;13.432;2022-08-21T02:26:34;22.40;59.90
21335;DHT22;10826;52.536;13.432;2022-08-21T02:29:00;22.40;59.80
21335;DHT22;10826;52.536;13.432;2022-08-21T02:31:27;22.30;59.60
21335;DHT22;10826;52.536;13.432;2022-08-21T02:33:53;22.20;59.40
21335;DHT22;10826;52.536;13.432;2022-08-21T02:36:19;22.20;59.80
21335;DHT22;10826;52.536;13.432;2022-08-21T02:38:45;22.10;60.00
21335;DHT22;10826;52.536;13.432;2022-08-21T02:41:17;22.10;60.00
21335;DHT22;10826;52.536;13.432;2022-08-21T02:43:45;22.10;59.80
21335;DHT22;10826;52.536;13.432;2022-08-21T02:46:13;22.00;59.60
21335;DHT22;10826;52.536;13.432;2022-08-21T02:48:41;22.00;59.50
21335;DHT22;10826;52.536;13.432;2022-08-21T02:51:09;22.00;59.50
21335;DHT22;10826;52.536;13.432;2022-08-21T02:53:38;22.00;59.30
21335;DHT22;10826;52.536;13.432;2022-08-21T02:56:07;21.90;59.10
21335;DHT22;10826;52.536;13.432;2022-08-21T02:58:38;21.90;59.20
21335;DHT22;10826;52.536;13.432;2022-08-21T03:01:08;21.90;59.30
21335;DHT22;10826;52.536;13.432;2022-08-21T03:03:35;21.90;59.30
21335;DHT22;10826;52.536;13.432;2022-08-21T03:06:05;22.00;59.00
21335;DHT22;10826;52.536;13.432;2022-08-21T03:08:34;21.90;58.90
21335;DHT22;10826;52.536;13.432;2022-08-21T03:11:01;21.90;58.70
21335;DHT22;10826;52.536;13.432;2022-08-21T03:13:28;21.90;58.30
21335;DHT22;10826;52.536;13.432;2022-08-21T03:15:54;21.80;58.30
21335;DHT22;10826;52.536;13.432;2022-08-21T03:18:21;21.80;58.30
21335;DHT22;10826;52.536;13.432;2022-08-21T03:20:47;21.80;58.40
21335;DHT22;10826;52.536;13.432;2022-08-21T03:23:15;21.70;58.10
21335;DHT22;10826;52.536;13.432;2022-08-21T03:25:43;21.80;58.00
21335;DHT22;10826;52.536;13.432;2022-08-21T03:28:16;21.80;58.10
21335;DHT22;10826;52.536;13.432;2022-08-21T03:30:48;21.80;57.80
21335;DHT22;10826;52.536;13.432;2022-08-21T03:33:17;21.80;57.50
21335;DHT22;10826;52.536;13.432;2022-08-21T03:35:45;21.70;57.70
21335;DHT22;10826;52.536;13.432;2022-08-21T03:38:17;21.70;57.70
21335;DHT22;10826;52.536;13.432;2022-08-21T03:40:43;21.70;57.70
21335;DHT22;10826;52.536;13.432;2022-08-21T03:43:09;21.70;57.70
21335;DHT22;10826;52.536;13.432;2022-08-21T03:45:36;21.70;57.90
21335;DHT22;10826;52.536;13.432;2022-08-21T03:48:04;21.70;57.80
21335;DHT22;10826;52.536;13.432;2022-08-21T03:50:35;21.80;57.90
21335;DHT22;10826;52.536;13.432;2022-08-21T03:53:03;21.70;57.90
21335;DHT22;10826;52.536;13.432;2022-08-21T03:55:29;21.70;57.80
21335;DHT22;10826;52.536;13.432;2022-08-21T03:57:56;21.70;57.60
21335;DHT22;10826;52.536;13.432;2022-08-21T04:00:22;21.80;57.50
21335;DHT22;10826;52.536;13.432;2022-08-21T04:02:50;21.60;57.60
21335;DHT22;10826;52.536;13.432;2022-08-21T04:05:17;21.60;57.60
21335;DHT22;10826;52.536;13.432;2022-08-21T04:08:01;21.60;57.60
21335;DHT22;10826;52.536;13.432;2022-08-21T04:10:31;21.50;57.80
21335;DHT22;10826;52.536;13.432;2022-08-21T04:12:58;21.50;57.90
21335;DHT22;10826;52.536;13.432;2022-08-21T04:15:25;21.50;57.80
21335;DHT22;10826;52.536;13.432;2022-08-21T04:17:52;21.50;57.70
21335;DHT22;10826;52.536;13.432;2022-08-21T04:20:20;21.40;57.80
21335;DHT22;10826;52.536;13.432;2022-08-21T04:22:47;21.40;57.70
21335;DHT22;10826;52.536;13.432;2022-08-21T04:25:16;21.50;57.60
21335;DHT22;10826;52.536;13.432;2022-08-21T04:27:44;21.40;57.40
21335;DHT22;10826;52.536;13.432;2022-08-21T04:30:12;21.40;57.20
21335;DHT22;10826;52.536;13.432;2022-08-21T04:32:46;21.40;57.20
21335;DHT22;10826;52.536;13.432;2022-08-21T04:35:15;21.40;57.00
21335;DHT22;10826;52.536;13.432;2022-08-21T04:37:42;21.40;56.80
21335;DHT22;10826;52.536;13.432;2022-08-21T04:40:10;21.40;56.80
21335;DHT22;10826;52.536;13.432;2022-08-21T04:42:43;21.40;56.70
21335;DHT22;10826;52.536;13.432;2022-08-21T04:45:20;21.40;56.60
21335;DHT22;10826;52.536;13.432;2022-08-21T04:47:56;21.40;56.30
21335;DHT22;10826;52.536;13.432;2022-08-21T04:53:34;21.40;55.90
21335;DHT22;10826;52.536;13.432;2022-08-21T04:56:08;21.40;56.10
21335;DHT22;10826;52.536;13.432;2022-08-21T04:58:37;21.40;56.50
21335;DHT22;10826;52.536;13.432;2022-08-21T05:01:08;21.30;56.50
21335;DHT22;10826;52.536;13.432;2022-08-21T05:03:38;21.30;56.40
21335;DHT22;10826;52.536;13.432;2022-08-21T05:06:07;21.40;56.60
21335;DHT22;10826;52.536;13.432;2022-08-21T05:08:36;21.40;56.70
21335;DHT22;10826;52.536;13.432;2022-08-21T05:11:05;21.50;56.50
21335;DHT22;10826;52.536;13.432;2022-08-21T05:13:32;21.50;56.30
21335;DHT22;10826;52.536;13.432;2022-08-21T05:15:58;21.60;56.40
21335;DHT22;10826;52.536;13.432;2022-08-21T05:18:25;21.60;55.70
21335;DHT22;10826;52.536;13.432;2022-08-21T05:20:51;21.60;55.90
21335;DHT22;10826;52.536;13.432;2022-08-21T05:23:17;21.60;55.90
21335;DHT22;10826;52.536;13.432;2022-08-21T05:25:43;21.70;55.60
21335;DHT22;10826;52.536;13.432;2022-08-21T05:28:10;21.70;55.40
21335;DHT22;10826;52.536;13.432;2022-08-21T05:30:36;21.70;55.40
21335;DHT22;10826;52.536;13.432;2022-08-21T05:33:05;21.70;55.40
21335;DHT22;10826;52.536;13.432;2022-08-21T05:35:32;21.70;55.30
21335;DHT22;10826;52.536;13.432;2022-08-21T05:37:59;21.70;55.30
21335;DHT22;10826;52.536;13.432;2022-08-21T05:40:26;21.70;55.30
21335;DHT22;10826;52.536;13.432;2022-08-21T05:42:53;21.70;55.50
21335;DHT22;10826;52.536;13.432;2022-08-21T05:45:24;21.80;55.40
21335;DHT22;10826;52.536;13.432;2022-08-21T05:47:52;21.80;55.20
21335;DHT22;10826;52.536;13.432;2022-08-21T05:50:18;21.90;55.10
21335;DHT22;10826;52.536;13.432;2022-08-21T05:52:44;22.00;54.80
21335;DHT22;10826;52.536;13.432;2022-08-21T05:55:10;21.90;54.60
21335;DHT22;10826;52.536;13.432;2022-08-21T05:57:36;22.00;54.40
21335;DHT22;10826;52.536;13.432;2022-08-21T06:00:07;22.00;54.20
21335;DHT22;10826;52.536;13.432;2022-08-21T06:02:39;22.00;53.90
21335;DHT22;10826;52.536;13.432;2022-08-21T06:05:06;22.00;54.00
21335;DHT22;10826;52.536;13.432;2022-08-21T06:07:33;22.00;54.10
21335;DHT22;10826;52.536;13.432;2022-08-21T06:09:59;22.00;54.00
21335;DHT22;10826;52.536;13.432;2022-08-21T06:12:25;22.00;53.80
21335;DHT22;10826;52.536;13.432;2022-08-21T06:14:52;22.00;54.00
21335;DHT22;10826;52.536;13.432;2022-08-21T06:17:20;22.00;53.70
21335;DHT22;10826;52.536;13.432;2022-08-21T06:19:51;22.00;53.70
21335;DHT22;10826;52.536;13.432;2022-08-21T06:22:18;22.00;53.90
21335;DHT22;10826;52.536;13.432;2022-08-21T06:24:44;22.10;53.70
21335;DHT22;10826;52.536;13.432;2022-08-21T06:27:10;22.10;53.60
21335;DHT22;10826;52.536;13.432;2022-08-21T06:29:39;22.20;53.20
21335;DHT22;10826;52.536;13.432;2022-08-21T06:32:05;22.20;53.10
21335;DHT22;10826;52.536;13.432;2022-08-21T06:34:37;22.30;53.20
21335;DHT22;10826;52.536;13.432;2022-08-21T06:37:08;22.40;53.20
21335;DHT22;10826;52.536;13.432;2022-08-21T06:39:35;22.50;52.90
21335;DHT22;10826;52.536;13.432;2022-08-21T06:42:01;22.50;52.60
21335;DHT22;10826;52.536;13.432;2022-08-21T06:44:27;22.60;52.50
21335;DHT22;10826;52.536;13.432;2022-08-21T06:46:55;22.70;52.30
21335;DHT22;10826;52.536;13.432;2022-08-21T06:49:22;22.70;51.80
21335;DHT22;10826;52.536;13.432;2022-08-21T06:51:48;22.80;51.60
21335;DHT22;10826;52.536;13.432;2022-08-21T06:54:14;22.80;51.60
21335;DHT22;10826;52.536;13.432;2022-08-21T06:56:41;22.90;51.40
21335;DHT22;10826;52.536;13.432;2022-08-21T06:59:06;22.90;51.60
21335;DHT22;10826;52.536;13.432;2022-08-21T07:01:32;23.00;51.40
21335;DHT22;10826;52.536;13.432;2022-08-21T07:03:58;23.10;51.30
21335;DHT22;10826;52.536;13.432;2022-08-21T07:06:24;23.10;50.90
21335;DHT22;10826;52.536;13.432;2022-08-21T07:08:51;23.20;50.90
21335;DHT22;10826;52.536;13.432;2022-08-21T07:11:24;23.30;50.80
21335;DHT22;10826;52.536;13.432;2022-08-21T07:13:51;23.40;50.40
21335;DHT22;10826;52.536;13.432;2022-08-21T07:16:20;23.40;50.10
21335;DHT22;10826;52.536;13.432;2022-08-21T07:18:47;23.50;49.50
21335;DHT22;10826;52.536;13.432;2022-08-21T07:21:15;23.50;49.30
21335;DHT22;10826;52.536;13.432;2022-08-21T07:23:44;23.70;49.40
21335;DHT22;10826;52.536;13.432;2022-08-21T07:26:14;23.70;48.80
21335;DHT22;10826;52.536;13.432;2022-08-21T07:28:42;23.80;47.50
21335;DHT22;10826;52.536;13.432;2022-08-21T07:31:10;23.80;47.60
21335;DHT22;10826;52.536;13.432;2022-08-21T07:33:39;23.80;47.60
21335;DHT22;10826;52.536;13.432;2022-08-21T07:36:06;23.80;47.40
21335;DHT22;10826;52.536;13.432;2022-08-21T07:38:35;23.80;46.80
21335;DHT22;10826;52.536;13.432;2022-08-21T07:41:02;23.90;46.70
21335;DHT22;10826;52.536;13.432;2022-08-21T07:43:39;23.90;46.30
21335;DHT22;10826;52.536;13.432;2022-08-21T07:46:05;24.00;45.90
21335;DHT22;10826;52.536;13.432;2022-08-21T07:48:31;24.10;46.00
21335;DHT22;10826;52.536;13.432;2022-08-21T07:50:58;24.10;45.20
21335;DHT22;10826;52.536;13.432;2022-08-21T07:53:26;24.20;44.50
21335;DHT22;10826;52.536;13.432;2022-08-21T07:55:52;24.10;44.40
21335;DHT22;10826;52.536;13.432;2022-08-21T07:58:18;24.10;43.60
21335;DHT22;10826;52.536;13.432;2022-08-21T08:00:44;24.10;43.70
21335;DHT22;10826;52.536;13.432;2022-08-21T08:03:10;24.10;43.70
21335;DHT22;10826;52.536;13.432;2022-08-21T08:05:36;24.10;43.30
21335;DHT22;10826;52.536;13.432;2022-08-21T08:08:03;24.10;42.80
21335;DHT22;10826;52.536;13.432;2022-08-21T08:10:29;24.10;43.00
21335;DHT22;10826;52.536;13.432;2022-08-21T08:12:55;24.10;43.00
21335;DHT22;10826;52.536;13.432;2022-08-21T08:15:24;24.10;43.20
21335;DHT22;10826;52.536;13.432;2022-08-21T08:17:52;24.10;42.60
21335;DHT22;10826;52.536;13.432;2022-08-21T08:20:19;24.20;43.30
21335;DHT22;10826;52.536;13.432;2022-08-21T08:22:45;24.30;42.80
21335;DHT22;10826;52.536;13.432;2022-08-21T08:25:13;24.30;43.00
21335;DHT22;10826;52.536;13.432;2022-08-21T08:27:41;24.40;42.40
21335;DHT22;10826;52.536;13.432;2022-08-21T08:30:09;24.50;41.50
21335;DHT22;10826;52.536;13.432;2022-08-21T08:32:38;24.40;41.10
21335;DHT22;10826;52.536;13.432;2022-08-21T08:35:06;24.40;41.40
21335;DHT22;10826;52.536;13.432;2022-08-21T08:37:33;24.40;41.70
21335;DHT22;10826;52.536;13.432;2022-08-21T08:40:04;24.50;42.00
21335;DHT22;10826;52.536;13.432;2022-08-21T08:42:35;24.50;41.90
21335;DHT22;10826;52.536;13.432;2022-08-21T08:45:15;24.60;41.60
21335;DHT22;10826;52.536;13.432;2022-08-21T08:47:52;24.70;41.90
21335;DHT22;10826;52.536;13.432;2022-08-21T08:50:48;24.80;40.90
21335;DHT22;10826;52.536;13.432;2022-08-21T08:53:49;24.80;40.70
21335;DHT22;10826;52.536;13.432;2022-08-21T08:56:22;24.80;40.40
21335;DHT22;10826;52.536;13.432;2022-08-21T08:58:59;24.80;40.30
21335;DHT22;10826;52.536;13.432;2022-08-21T09:01:28;24.80;40.40
21335;DHT22;10826;52.536;13.432;2022-08-21T09:03:54;24.90;40.70
21335;DHT22;10826;52.536;13.432;2022-08-21T09:06:35;24.90;39.90
21335;DHT22;10826;52.536;13.432;2022-08-21T09:09:28;25.10;39.70
21335;DHT22;10826;52.536;13.432;2022-08-21T09:12:31;25.20;39.70
21335;DHT22;10826;52.536;13.432;2022-08-21T09:18:10;25.30;39.00
21335;DHT22;10826;52.536;13.432;2022-08-21T09:21:21;25.40;38.80
21335;DHT22;10826;52.536;13.432;2022-08-21T09:24:33;25.40;38.20
21335;DHT22;10826;52.536;13.432;2022-08-21T09:27:33;25.40;38.10
21335;DHT22;10826;52.536;13.432;2022-08-21T09:30:01;25.40;38.30
21335;DHT22;10826;52.536;13.432;2022-08-21T09:32:34;25.50;38.90
21335;DHT22;10826;52.536;13.432;2022-08-21T09:38:01;25.80;38.50
21335;DHT22;10826;52.536;13.432;2022-08-21T09:40:44;25.90;37.20
21335;DHT22;10826;52.536;13.432;2022-08-21T09:45:39;25.90;36.90
21335;DHT22;10826;52.536;13.432;2022-08-21T09:48:18;25.90;37.10
21335;DHT22;10826;52.536;13.432;2022-08-21T09:50:47;26.00;37.50
21335;DHT22;10826;52.536;13.432;2022-08-21T09:53:26;26.00;37.40
21335;DHT22;10826;52.536;13.432;2022-08-21T09:55:57;26.10;37.50
21335;DHT22;10826;52.536;13.432;2022-08-21T09:58:49;26.20;37.10
21335;DHT22;10826;52.536;13.432;2022-08-21T10:01:19;26.40;36.50
21335;DHT22;10826;52.536;13.432;2022-08-21T10:03:49;26.50;36.00
21335;DHT22;10826;52.536;13.432;2022-08-21T10:06:32;26.60;35.80
21335;DHT22;10826;52.536;13.432;2022-08-21T10:11:33;26.60;35.50
21335;DHT22;10826;52.536;13.432;2022-08-21T10:14:24;26.60;35.40
21335;DHT22;10826;52.536;13.432;2022-08-21T10:17:33;26.70;35.20
21335;DHT22;10826;52.536;13.432;2022-08-21T10:20:46;26.70;34.80
21335;DHT22;10826;52.536;13.432;2022-08-21T10:23:53;26.70;34.90
21335;DHT22;10826;52.536;13.432;2022-08-21T10:27:11;26.70;34.60
21335;DHT22;10826;52.536;13.432;2022-08-21T10:30:02;26.80;34.50
21335;DHT22;10826;52.536;13.432;2022-08-21T10:32:50;26.90;34.40
21335;DHT22;10826;52.536;13.432;2022-08-21T10:35:36;27.00;34.70
21335;DHT22;10826;52.536;13.432;2022-08-21T10:38:43;27.10;35.10
21335;DHT22;10826;52.536;13.432;2022-08-21T10:41:19;27.20;33.80
21335;DHT22;10826;52.536;13.432;2022-08-21T10:44:54;27.10;34.20
21335;DHT22;10826;52.536;13.432;2022-08-21T10:47:12;27.10;34.00
21335;DHT22;10826;52.536;13.432;2022-08-21T10:50:19;27.10;33.90
21335;DHT22;10826;52.536;13.432;2022-08-21T10:55:44;27.00;33.80
21335;DHT22;10826;52.536;13.432;2022-08-21T10:58:45;27.00;33.90
21335;DHT22;10826;52.536;13.432;2022-08-21T11:04:18;27.10;33.70
21335;DHT22;10826;52.536;13.432;2022-08-21T11:06:58;27.10;33.80
21335;DHT22;10826;52.536;13.432;2022-08-21T11:09:28;27.10;33.10
21335;DHT22;10826;52.536;13.432;2022-08-21T11:12:02;27.10;32.80
21335;DHT22;10826;52.536;13.432;2022-08-21T11:17:30;27.30;32.30
21335;DHT22;10826;52.536;13.432;2022-08-21T11:20:22;27.30;32.30
21335;DHT22;10826;52.536;13.432;2022-08-21T11:23:23;27.30;32.40
21335;DHT22;10826;52.536;13.432;2022-08-21T11:25:58;27.40;32.00
21335;DHT22;10826;52.536;13.432;2022-08-21T11:28:48;27.40;31.40
21335;DHT22;10826;52.536;13.432;2022-08-21T11:31:35;27.50;31.60
21335;DHT22;10826;52.536;13.432;2022-08-21T11:43:48;27.70;30.10
21335;DHT22;10826;52.536;13.432;2022-08-21T11:46:50;27.70;29.30
21335;DHT22;10826;52.536;13.432;2022-08-21T11:52:38;27.70;28.10
21335;DHT22;10826;52.536;13.432;2022-08-21T12:03:14;27.60;27.50
21335;DHT22;10826;52.536;13.432;2022-08-21T12:05:45;27.60;28.00
21335;DHT22;10826;52.536;13.432;2022-08-21T12:08:42;27.60;27.50
21335;DHT22;10826;52.536;13.432;2022-08-21T12:11:23;27.60;27.20
21335;DHT22;10826;52.536;13.432;2022-08-21T12:16:45;27.60;27.00
21335;DHT22;10826;52.536;13.432;2022-08-21T12:19:27;27.60;26.80
21335;DHT22;10826;52.536;13.432;2022-08-21T12:24:49;27.50;28.00
21335;DHT22;10826;52.536;13.432;2022-08-21T12:27:46;27.50;28.30
21335;DHT22;10826;52.536;13.432;2022-08-21T12:30:37;27.50;27.90
21335;DHT22;10826;52.536;13.432;2022-08-21T12:33:18;27.50;28.40
21335;DHT22;10826;52.536;13.432;2022-08-21T12:36:12;27.60;28.70
21335;DHT22;10826;52.536;13.432;2022-08-21T12:41:37;27.60;28.70
21335;DHT22;10826;52.536;13.432;2022-08-21T12:44:56;27.70;28.40
21335;DHT22;10826;52.536;13.432;2022-08-21T12:47:43;27.70;28.50
21335;DHT22;10826;52.536;13.432;2022-08-21T12:50:26;27.70;28.50
21335;DHT22;10826;52.536;13.432;2022-08-21T12:53:34;27.80;28.00
21335;DHT22;10826;52.536;13.432;2022-08-21T12:56:13;27.70;27.50
21335;DHT22;10826;52.536;13.432;2022-08-21T12:58:47;27.70;25.80
21335;DHT22;10826;52.536;13.432;2022-08-21T13:01:25;27.60;26.00
21335;DHT22;10826;52.536;13.432;2022-08-21T13:04:03;27.60;26.90
21335;DHT22;10826;52.536;13.432;2022-08-21T13:06:39;27.50;27.30
21335;DHT22;10826;52.536;13.432;2022-08-21T13:09:12;27.40;28.00
21335;DHT22;10826;52.536;13.432;2022-08-21T13:11:45;27.40;28.50
21335;DHT22;10826;52.536;13.432;2022-08-21T13:14:33;27.40;28.60
21335;DHT22;10826;52.536;13.432;2022-08-21T13:17:04;27.40;28.80
21335;DHT22;10826;52.536;13.432;2022-08-21T13:19:33;27.30;28.80
21335;DHT22;10826;52.536;13.432;2022-08-21T13:22:26;27.20;29.20
21335;DHT22;10826;52.536;13.432;2022-08-21T13:24:56;27.10;28.80
21335;DHT22;10826;52.536;13.432;2022-08-21T13:27:28;27.10;29.20
21335;DHT22;10826;52.536;13.432;2022-08-21T13:30:06;27.00;29.50
21335;DHT22;10826;52.536;13.432;2022-08-21T13:32:42;27.00;29.70
21335;DHT22;10826;52.536;13.432;2022-08-21T13:35:17;26.90;29.20
21335;DHT22;10826;52.536;13.432;2022-08-21T13:37:47;26.90;29.30
21335;DHT22;10826;52.536;13.432;2022-08-21T13:40:45;26.90;29.50
21335;DHT22;10826;52.536;13.432;2022-08-21T13:43:17;26.90;29.50
21335;DHT22;10826;52.536;13.432;2022-08-21T13:45:52;26.80;29.60
21335;DHT22;10826;52.536;13.432;2022-08-21T13:48:20;26.80;29.40
21335;DHT22;10826;52.536;13.432;2022-08-21T13:50:49;26.70;29.80
21335;DHT22;10826;52.536;13.432;2022-08-21T13:53:43;26.80;30.30
21335;DHT22;10826;52.536;13.432;2022-08-21T13:56:25;26.90;30.20
21335;DHT22;10826;52.536;13.432;2022-08-21T13:58:58;26.80;30.40
21335;DHT22;10826;52.536;13.432;2022-08-21T14:01:26;26.80;30.90
21335;DHT22;10826;52.536;13.432;2022-08-21T14:04:12;26.80;31.20
21335;DHT22;10826;52.536;13.432;2022-08-21T14:06:44;26.90;31.30
21335;DHT22;10826;52.536;13.432;2022-08-21T14:09:20;26.90;31.70
21335;DHT22;10826;52.536;13.432;2022-08-21T14:11:54;27.00;32.20
21335;DHT22;10826;52.536;13.432;2022-08-21T14:14:32;27.00;32.40
21335;DHT22;10826;52.536;13.432;2022-08-21T14:17:03;27.20;32.20
21335;DHT22;10826;52.536;13.432;2022-08-21T14:19:42;27.20;32.20
21335;DHT22;10826;52.536;13.432;2022-08-21T14:25:28;27.30;31.70
21335;DHT22;10826;52.536;13.432;2022-08-21T14:28:03;27.30;31.70
21335;DHT22;10826;52.536;13.432;2022-08-21T14:30:52;27.40;32.10
21335;DHT22;10826;52.536;13.432;2022-08-21T14:33:29;27.50;32.00
21335;DHT22;10826;52.536;13.432;2022-08-21T14:35:57;27.50;31.50
21335;DHT22;10826;52.536;13.432;2022-08-21T14:38:26;27.50;31.70
21335;DHT22;10826;52.536;13.432;2022-08-21T14:40:59;27.50;31.60
21335;DHT22;10826;52.536;13.432;2022-08-21T14:43:42;27.50;31.60
21335;DHT22;10826;52.536;13.432;2022-08-21T14:46:09;27.40;31.80
21335;DHT22;10826;52.536;13.432;2022-08-21T14:48:34;27.30;32.00
21335;DHT22;10826;52.536;13.432;2022-08-21T14:51:01;27.10;32.20
21335;DHT22;10826;52.536;13.432;2022-08-21T14:53:26;27.00;32.30
21335;DHT22;10826;52.536;13.432;2022-08-21T14:55:53;26.90;32.00
21335;DHT22;10826;52.536;13.432;2022-08-21T14:58:37;26.90;32.50
21335;DHT22;10826;52.536;13.432;2022-08-21T15:01:07;26.80;32.40
21335;DHT22;10826;52.536;13.432;2022-08-21T15:03:35;26.80;32.60
21335;DHT22;10826;52.536;13.432;2022-08-21T15:06:03;26.70;32.80
21335;DHT22;10826;52.536;13.432;2022-08-21T15:08:31;26.80;32.80
21335;DHT22;10826;52.536;13.432;2022-08-21T15:10:58;26.70;32.80
21335;DHT22;10826;52.536;13.432;2022-08-21T15:13:26;26.70;32.80
21335;DHT22;10826;52.536;13.432;2022-08-21T15:15:53;26.80;32.70
21335;DHT22;10826;52.536;13.432;2022-08-21T15:18:23;26.70;32.50
21335;DHT22;10826;52.536;13.432;2022-08-21T15:20:51;26.80;32.60
21335;DHT22;10826;52.536;13.432;2022-08-21T15:23:18;26.80;32.60
21335;DHT22;10826;52.536;13.432;2022-08-21T15:25:46;26.80;32.60
21335;DHT22;10826;52.536;13.432;2022-08-21T15:28:14;26.80;32.80
21335;DHT22;10826;52.536;13.432;2022-08-21T15:30:44;26.70;33.00
21335;DHT22;10826;52.536;13.432;2022-08-21T15:33:11;26.70;33.30
21335;DHT22;10826;52.536;13.432;2022-08-21T15:35:37;26.70;33.40
21335;DHT22;10826;52.536;13.432;2022-08-21T15:38:05;26.60;33.40
21335;DHT22;10826;52.536;13.432;2022-08-21T15:40:33;26.70;33.50
21335;DHT22;10826;52.536;13.432;2022-08-21T15:43:01;26.70;33.50
21335;DHT22;10826;52.536;13.432;2022-08-21T15:45:29;26.70;33.40
21335;DHT22;10826;52.536;13.432;2022-08-21T15:47:56;26.70;33.50
21335;DHT22;10826;52.536;13.432;2022-08-21T15:50:24;26.70;33.30
21335;DHT22;10826;52.536;13.432;2022-08-21T15:52:52;26.70;33.40
21335;DHT22;10826;52.536;13.432;2022-08-21T15:55:18;26.80;33.20
21335;DHT22;10826;52.536;13.432;2022-08-21T15:57:48;26.80;33.20
21335;DHT22;10826;52.536;13.432;2022-08-21T16:00:16;26.70;33.40
21335;DHT22;10826;52.536;13.432;2022-08-21T16:02:49;26.70;33.30
21335;DHT22;10826;52.536;13.432;2022-08-21T16:05:17;26.70;33.30
21335;DHT22;10826;52.536;13.432;2022-08-21T16:07:45;26.70;33.20
21335;DHT22;10826;52.536;13.432;2022-08-21T16:10:13;26.70;32.90
21335;DHT22;10826;52.536;13.432;2022-08-21T16:12:46;26.70;33.10
21335;DHT22;10826;52.536;13.432;2022-08-21T16:15:16;26.60;33.10
21335;DHT22;10826;52.536;13.432;2022-08-21T16:17:44;26.60;33.20
21335;DHT22;10826;52.536;13.432;2022-08-21T16:20:24;26.60;33.30
21335;DHT22;10826;52.536;13.432;2022-08-21T16:22:54;26.60;33.40
21335;DHT22;10826;52.536;13.432;2022-08-21T16:25:22;26.60;33.60
21335;DHT22;10826;52.536;13.432;2022-08-21T16:27:54;26.60;34.30
21335;DHT22;10826;52.536;13.432;2022-08-21T16:30:23;26.60;33.40
21335;DHT22;10826;52.536;13.432;2022-08-21T16:32:49;26.60;33.30
21335;DHT22;10826;52.536;13.432;2022-08-21T16:35:19;26.60;33.10
21335;DHT22;10826;52.536;13.432;2022-08-21T16:37:46;26.50;33.20
21335;DHT22;10826;52.536;13.432;2022-08-21T16:40:13;26.50;33.30
21335;DHT22;10826;52.536;13.432;2022-08-21T16:42:43;26.50;33.40